Time;durP1;ratioP1;P1;durP2;ratioP2;P2;SDS_P1;SDS_P2;PMS_P1;PMS_P2;Temp;Humidity;BMP_temperature;BMP_pressure;BME280_temperature;BME280_humidity;BME280_pressure;Samples;Min_cycle;Max_cycle;Signal;HPM_P1;HPM_P2
2021/03/19 00:00:10;;;;;;;24.35;18.65;;;;;;;;;;5037930;28;20335;-51
2021/03/19 00:02:36;;;;;;;25.83;19.58;;;;;;;;;;5037492;28;20185;-52
2021/03/19 00:05:03;;;;;;;27.73;18.73;;;;;;;;;;5037345;28;20650;-52
2021/03/19 00:07:39;;;;;;;29.40;20.08;;;;;;;;;;5035157;28;20259;-51
2021/03/19 00:10:06;;;;;;;26.65;19.73;;;;;;;;;;5037020;28;20229;-52
2021/03/19 00:12:32;;;;;;;28.50;18.95;;;;;;;;;;5037966;28;20233;-52
2021/03/19 00:14:57;;;;;;;30.00;19.37;;;;;;;;;;5033668;28;20196;-51
2021/03/19 00:17:23;;;;;;;29.57;19.70;;;;;;;;;;5037998;28;20394;-53
2021/03/19 00:19:49;;;;;;;27.57;19.10;;;;;;;;;;5037294;28;20426;-53
2021/03/19 00:22:15;;;;;;;27.57;19.47;;;;;;;;;;5037147;28;20452;-52
2021/03/19 00:24:41;;;;;;;33.08;21.85;;;;;;;;;;5036801;28;20420;-51
2021/03/19 00:27:07;;;;;;;35.33;21.65;;;;;;;;;;5037240;28;20177;-52
2021/03/19 00:29:33;;;;;;;26.10;20.63;;;;;;;;;;5036445;28;20204;-54
2021/03/19 00:31:59;;;;;;;30.27;20.30;;;;;;;;;;5037149;28;20556;-54
2021/03/19 00:34:25;;;;;;;27.60;19.77;;;;;;;;;;5036364;28;20800;-51
2021/03/19 00:36:51;;;;;;;30.57;20.23;;;;;;;;;;5037345;28;20403;-51
2021/03/19 00:39:17;;;;;;;30.00;21.93;;;;;;;;;;5032729;28;20837;-52
2021/03/19 00:41:43;;;;;;;31.20;22.00;;;;;;;;;;5035744;28;20433;-52
2021/03/19 00:44:09;;;;;;;31.30;21.33;;;;;;;;;;5036658;28;20406;-52
2021/03/19 00:46:35;;;;;;;35.85;22.80;;;;;;;;;;5036470;28;20427;-52
2021/03/19 00:49:01;;;;;;;32.80;21.50;;;;;;;;;;5036364;28;20695;-51
2021/03/19 00:51:27;;;;;;;34.72;22.92;;;;;;;;;;5037677;28;20456;-51
2021/03/19 00:53:53;;;;;;;30.73;23.00;;;;;;;;;;5036962;28;20171;-51
2021/03/19 00:56:19;;;;;;;35.03;24.30;;;;;;;;;;5036858;28;20908;-51
2021/03/19 00:58:45;;;;;;;31.90;21.53;;;;;;;;;;5036506;28;20803;-51
2021/03/19 01:01:11;;;;;;;39.17;24.30;;;;;;;;;;5036877;28;20410;-51
2021/03/19 01:03:37;;;;;;;44.30;22.50;;;;;;;;;;5037198;28;20428;-52
2021/03/19 01:06:03;;;;;;;37.07;23.07;;;;;;;;;;5036079;28;20404;-51
2021/03/19 01:08:29;;;;;;;31.15;22.15;;;;;;;;;;5034762;28;20877;-55
2021/03/19 01:10:56;;;;;;;31.73;24.33;;;;;;;;;;5033390;28;20200;-51
2021/03/19 01:13:23;;;;;;;33.20;23.15;;;;;;;;;;5036869;28;20445;-52
2021/03/19 01:15:51;;;;;;;36.75;23.58;;;;;;;;;;5036067;28;20165;-52
2021/03/19 01:18:18;;;;;;;35.78;23.05;;;;;;;;;;5035471;28;20180;-52
2021/03/19 01:20:44;;;;;;;42.75;25.17;;;;;;;;;;5036942;28;20652;-52
2021/03/19 01:23:11;;;;;;;36.83;23.08;;;;;;;;;;5036174;28;20176;-51
2021/03/19 01:25:37;;;;;;;34.70;22.25;;;;;;;;;;5035819;28;20168;-53
2021/03/19 01:28:03;;;;;;;37.28;25.60;;;;;;;;;;5035207;28;20660;-52
2021/03/19 01:30:31;;;;;;;40.30;23.35;;;;;;;;;;5035454;28;20203;-52
2021/03/19 01:32:57;;;;;;;41.47;24.33;;;;;;;;;;5035408;28;20231;-53
2021/03/19 01:35:27;;;;;;;43.00;22.97;;;;;;;;;;5036799;28;20211;-54
2021/03/19 01:37:53;;;;;;;32.13;22.58;;;;;;;;;;5035117;28;20406;-52
2021/03/19 01:40:20;;;;;;;34.30;23.70;;;;;;;;;;5031019;28;20200;-52
2021/03/19 01:43:06;;;;;;;46.17;23.60;;;;;;;;;;5035218;28;20434;-51
2021/03/19 01:45:51;;;;;;;32.03;20.77;;;;;;;;;;5022178;28;20186;-50
2021/03/19 01:48:35;;;;;;;33.53;22.85;;;;;;;;;;5035267;28;20231;-52
2021/03/19 01:51:20;;;;;;;33.05;22.90;;;;;;;;;;5035833;28;20257;-54
2021/03/19 01:54:04;;;;;;;35.05;24.60;;;;;;;;;;5035285;28;20176;-51
2021/03/19 01:56:49;;;;;;;34.13;24.17;;;;;;;;;;5035289;28;20204;-51
2021/03/19 01:59:33;;;;;;;32.28;23.33;;;;;;;;;;5034843;28;20697;-52
2021/03/19 02:02:18;;;;;;;35.63;22.65;;;;;;;;;;5034404;28;20236;-54
2021/03/19 02:05:03;;;;;;;33.95;22.92;;;;;;;;;;5034270;28;20203;-51
2021/03/19 02:07:47;;;;;;;33.75;22.38;;;;;;;;;;5034586;28;20214;-51
2021/03/19 02:10:32;;;;;;;35.38;23.48;;;;;;;;;;5030657;28;20203;-51
2021/03/19 02:13:16;;;;;;;36.92;23.85;;;;;;;;;;5034960;28;20247;-51
2021/03/19 02:16:01;;;;;;;34.65;23.95;;;;;;;;;;5034763;28;20177;-54
2021/03/19 02:18:45;;;;;;;37.03;22.80;;;;;;;;;;5034936;28;20202;-52
2021/03/19 02:21:30;;;;;;;35.58;21.88;;;;;;;;;;5034703;28;20235;-51
2021/03/19 02:24:15;;;;;;;32.92;23.17;;;;;;;;;;5034584;28;20178;-53
2021/03/19 02:27:04;;;;;;;33.28;22.40;;;;;;;;;;5035565;28;20174;-51
2021/03/19 02:29:49;;;;;;;30.48;21.50;;;;;;;;;;4998167;28;20211;-52
2021/03/19 02:32:17;;;;;;;32.78;21.85;;;;;;;;;;5035172;28;20208;-53
2021/03/19 02:34:45;;;;;;;29.15;21.05;;;;;;;;;;5035192;28;20221;-53
2021/03/19 02:37:12;;;;;;;33.65;21.00;;;;;;;;;;5034722;28;20173;-51
2021/03/19 02:39:39;;;;;;;32.22;21.85;;;;;;;;;;5034328;28;20269;-51
2021/03/19 02:42:06;;;;;;;33.55;22.83;;;;;;;;;;5031533;28;20599;-53
2021/03/19 02:44:32;;;;;;;32.88;21.67;;;;;;;;;;5034465;28;20187;-54
2021/03/19 02:46:58;;;;;;;33.30;21.83;;;;;;;;;;5034218;28;20223;-53
2021/03/19 02:49:24;;;;;;;31.10;22.13;;;;;;;;;;5033965;28;20428;-51
2021/03/19 02:51:53;;;;;;;26.40;20.40;;;;;;;;;;5034706;28;20451;-53
2021/03/19 02:54:19;;;;;;;28.73;20.48;;;;;;;;;;5034549;28;20410;-52
2021/03/19 02:56:44;;;;;;;31.53;22.43;;;;;;;;;;5034448;28;20192;-51
2021/03/19 02:59:12;;;;;;;32.70;22.00;;;;;;;;;;5034697;28;20446;-52
2021/03/19 03:01:38;;;;;;;30.38;20.63;;;;;;;;;;5034360;28;20456;-51
2021/03/19 03:04:04;;;;;;;30.90;21.55;;;;;;;;;;5035032;28;20172;-51
2021/03/19 03:06:39;;;;;;;30.85;20.92;;;;;;;;;;5034409;28;20231;-51
2021/03/19 03:09:10;;;;;;;28.90;21.70;;;;;;;;;;5034126;28;20560;-53
2021/03/19 03:11:36;;;;;;;33.92;20.77;;;;;;;;;;5032112;28;20212;-54
2021/03/19 03:14:04;;;;;;;30.30;22.33;;;;;;;;;;5034552;28;20191;-51
2021/03/19 03:16:30;;;;;;;28.35;19.50;;;;;;;;;;5034780;28;20718;-51
2021/03/19 03:18:56;;;;;;;30.60;20.98;;;;;;;;;;5035322;28;20189;-51
2021/03/19 03:21:22;;;;;;;29.13;21.60;;;;;;;;;;5035394;28;20224;-51
2021/03/19 03:23:48;;;;;;;37.57;22.03;;;;;;;;;;5035011;28;20436;-51
2021/03/19 03:26:14;;;;;;;32.88;21.80;;;;;;;;;;5035087;28;20408;-51
2021/03/19 03:28:41;;;;;;;35.67;23.10;;;;;;;;;;5035073;28;20741;-51
2021/03/19 03:31:08;;;;;;;34.80;23.02;;;;;;;;;;5034797;28;20456;-52
2021/03/19 03:33:34;;;;;;;35.10;21.90;;;;;;;;;;5034603;28;20172;-52
2021/03/19 03:36:00;;;;;;;38.78;22.10;;;;;;;;;;5034620;28;20178;-51
2021/03/19 03:38:28;;;;;;;29.27;20.35;;;;;;;;;;5034296;28;20189;-52
2021/03/19 03:40:58;;;;;;;35.75;23.55;;;;;;;;;;5031397;28;20198;-53
2021/03/19 03:43:24;;;;;;;29.80;21.40;;;;;;;;;;5034592;28;20195;-53
2021/03/19 03:45:51;;;;;;;29.88;20.40;;;;;;;;;;5034674;28;20203;-53
2021/03/19 03:48:18;;;;;;;29.88;20.50;;;;;;;;;;5034175;28;20197;-53
2021/03/19 03:50:44;;;;;;;34.45;20.90;;;;;;;;;;5033947;28;20199;-54
2021/03/19 03:53:11;;;;;;;31.92;19.75;;;;;;;;;;5034585;28;20636;-52
2021/03/19 03:55:38;;;;;;;33.55;20.80;;;;;;;;;;5033963;28;20172;-50
2021/03/19 03:58:05;;;;;;;26.17;18.38;;;;;;;;;;5034239;28;20164;-53
2021/03/19 04:00:31;;;;;;;29.67;19.17;;;;;;;;;;5034149;28;20641;-52
2021/03/19 04:02:59;;;;;;;29.00;19.35;;;;;;;;;;5034254;28;20194;-52
2021/03/19 04:05:27;;;;;;;33.00;21.00;;;;;;;;;;5034430;28;20241;-52
2021/03/19 04:07:53;;;;;;;38.70;22.70;;;;;;;;;;5034294;28;20172;-54
2021/03/19 04:10:19;;;;;;;38.83;22.13;;;;;;;;;;5034859;28;20258;-54
2021/03/19 04:12:45;;;;;;;32.97;21.52;;;;;;;;;;5038188;28;20274;-52
2021/03/19 04:15:12;;;;;;;33.05;20.10;;;;;;;;;;5037193;28;20168;-52
2021/03/19 04:17:38;;;;;;;35.08;20.55;;;;;;;;;;5038257;28;20188;-51
2021/03/19 04:20:06;;;;;;;35.00;20.48;;;;;;;;;;5037290;28;20238;-51
2021/03/19 04:22:32;;;;;;;35.60;21.60;;;;;;;;;;5037642;28;20608;-52
2021/03/19 04:24:58;;;;;;;39.30;19.55;;;;;;;;;;5037572;28;20522;-51
2021/03/19 04:27:27;;;;;;;36.08;20.85;;;;;;;;;;5037116;28;20654;-52
2021/03/19 04:29:55;;;;;;;35.30;20.35;;;;;;;;;;5037086;28;20192;-53
2021/03/19 04:32:21;;;;;;;38.55;20.05;;;;;;;;;;5037088;28;20213;-52
2021/03/19 04:34:47;;;;;;;31.95;19.55;;;;;;;;;;5036916;28;20215;-51
2021/03/19 04:37:13;;;;;;;28.42;18.63;;;;;;;;;;5047325;22;20221;-56
2021/03/19 04:39:42;;;;;;;29.92;19.05;;;;;;;;;;4992110;28;20191;-56
2021/03/19 04:42:08;;;;;;;34.20;20.75;;;;;;;;;;5012850;28;20222;-57
2021/03/19 04:44:36;;;;;;;39.88;20.50;;;;;;;;;;5013183;28;20791;-58
2021/03/19 04:47:02;;;;;;;40.60;20.33;;;;;;;;;;5013179;28;20616;-60
2021/03/19 04:49:28;;;;;;;30.92;20.70;;;;;;;;;;5012952;28;20172;-59
2021/03/19 04:51:54;;;;;;;31.30;18.47;;;;;;;;;;5013079;28;20580;-61
2021/03/19 04:54:20;;;;;;;27.13;17.00;;;;;;;;;;5013081;28;20905;-59
2021/03/19 04:56:46;;;;;;;34.17;18.73;;;;;;;;;;5013052;28;20165;-60
2021/03/19 04:59:12;;;;;;;25.93;17.50;;;;;;;;;;5012604;28;20180;-61
2021/03/19 05:01:48;;;;;;;30.90;18.47;;;;;;;;;;5012880;28;20407;-56
2021/03/19 05:04:14;;;;;;;29.23;18.25;;;;;;;;;;5012774;28;20418;-56
2021/03/19 05:06:40;;;;;;;27.83;17.45;;;;;;;;;;5012773;28;20168;-56
2021/03/19 05:09:06;;;;;;;31.17;18.10;;;;;;;;;;5012450;28;20182;-56
2021/03/19 05:11:32;;;;;;;28.23;17.70;;;;;;;;;;5009235;28;20507;-57
2021/03/19 05:13:58;;;;;;;25.75;16.33;;;;;;;;;;5012614;28;20399;-60
2021/03/19 05:16:24;;;;;;;28.07;18.17;;;;;;;;;;5012621;28;20179;-60
2021/03/19 05:18:50;;;;;;;24.30;17.47;;;;;;;;;;5012245;28;20426;-61
2021/03/19 05:21:16;;;;;;;32.80;17.90;;;;;;;;;;5012049;28;20406;-57
2021/03/19 05:23:42;;;;;;;31.10;19.00;;;;;;;;;;5012527;28;20621;-57
2021/03/19 05:26:08;;;;;;;23.27;17.73;;;;;;;;;;5012438;28;20601;-57
2021/03/19 05:28:35;;;;;;;27.15;18.23;;;;;;;;;;5012169;28;20502;-57
2021/03/19 05:31:01;;;;;;;27.25;16.40;;;;;;;;;;5012121;28;20196;-61
2021/03/19 05:33:28;;;;;;;35.05;18.23;;;;;;;;;;5012341;28;20647;-61
2021/03/19 05:35:55;;;;;;;24.08;17.25;;;;;;;;;;5012247;28;20165;-58
2021/03/19 05:38:22;;;;;;;27.33;17.40;;;;;;;;;;5011871;28;20291;-56
2021/03/19 05:40:50;;;;;;;24.58;17.10;;;;;;;;;;5008802;28;20624;-56
2021/03/19 05:43:22;;;;;;;30.92;18.27;;;;;;;;;;4973116;28;20170;-57
2021/03/19 05:45:54;;;;;;;31.02;16.95;;;;;;;;;;4973015;28;20177;-56
2021/03/19 05:48:21;;;;;;;23.58;16.25;;;;;;;;;;4972726;28;20204;-56
2021/03/19 05:50:47;;;;;;;26.13;16.88;;;;;;;;;;4972988;28;20193;-61
2021/03/19 05:53:18;;;;;;;25.73;17.15;;;;;;;;;;4972888;28;20641;-61
2021/03/19 05:55:44;;;;;;;25.05;17.77;;;;;;;;;;4971649;28;20181;-57
2021/03/19 05:58:27;;;;;;;21.15;17.10;;;;;;;;;;4971614;28;20268;-58
2021/03/19 06:00:57;;;;;;;21.92;16.67;;;;;;;;;;4972467;28;20184;-60
2021/03/19 06:03:25;;;;;;;22.33;16.27;;;;;;;;;;4972114;28;20180;-61
2021/03/19 06:05:58;;;;;;;29.40;16.88;;;;;;;;;;4972371;28;20173;-56
2021/03/19 06:08:29;;;;;;;23.90;17.52;;;;;;;;;;4971615;28;20189;-56
2021/03/19 06:11:04;;;;;;;24.92;16.75;;;;;;;;;;4989839;28;20200;-56
2021/03/19 06:13:41;;;;;;;26.25;16.83;;;;;;;;;;5010909;28;20164;-64
2021/03/19 06:16:21;;;;;;;30.48;17.20;;;;;;;;;;5011218;28;20167;-56
2021/03/19 06:18:48;;;;;;;29.38;16.85;;;;;;;;;;5006979;28;20200;-56
2021/03/19 06:21:20;;;;;;;26.13;16.83;;;;;;;;;;5010905;28;20164;-63
2021/03/19 06:23:59;;;;;;;26.05;17.45;;;;;;;;;;5010987;28;20188;-61
2021/03/19 06:26:30;;;;;;;26.77;16.52;;;;;;;;;;5010884;28;20922;-56
2021/03/19 06:29:05;;;;;;;27.45;16.98;;;;;;;;;;5010651;28;20180;-58
2021/03/19 06:31:32;;;;;;;28.83;16.40;;;;;;;;;;5008730;28;20634;-59
2021/03/19 06:34:11;;;;;;;25.77;17.05;;;;;;;;;;5010776;28;20805;-55
2021/03/19 06:36:58;;;;;;;23.13;15.88;;;;;;;;;;5009273;28;20655;-57
2021/03/19 06:39:31;;;;;;;26.40;15.40;;;;;;;;;;5010391;28;20521;-58
2021/03/19 06:42:00;;;;;;;33.13;17.23;;;;;;;;;;5006577;28;20176;-57
2021/03/19 06:44:26;;;;;;;22.80;15.75;;;;;;;;;;5009432;28;20180;-60
2021/03/19 06:46:54;;;;;;;19.47;14.33;;;;;;;;;;5010568;28;20775;-61
2021/03/19 06:49:21;;;;;;;17.98;12.70;;;;;;;;;;5010947;28;20786;-57
2021/03/19 06:51:51;;;;;;;15.77;12.82;;;;;;;;;;5010964;28;20273;-61
2021/03/19 06:54:17;;;;;;;18.02;13.32;;;;;;;;;;5011152;28;20180;-56
2021/03/19 06:57:02;;;;;;;17.97;11.60;;;;;;;;;;5010902;28;20529;-57
2021/03/19 06:59:29;;;;;;;15.45;12.30;;;;;;;;;;5010764;28;20884;-57
2021/03/19 07:01:55;;;;;;;16.77;11.48;;;;;;;;;;5010928;28;20259;-56
2021/03/19 07:04:40;;;;;;;17.27;11.82;;;;;;;;;;5011013;28;20243;-57
2021/03/19 07:07:12;;;;;;;13.40;10.13;;;;;;;;;;5010827;28;20686;-60
2021/03/19 07:09:38;;;;;;;14.85;9.65;;;;;;;;;;5010814;28;20651;-61
2021/03/19 07:12:08;;;;;;;13.03;9.57;;;;;;;;;;5007518;28;20191;-56
2021/03/19 07:14:52;;;;;;;13.70;9.13;;;;;;;;;;5010901;28;20406;-61
2021/03/19 07:17:29;;;;;;;11.20;9.10;;;;;;;;;;5009383;28;20203;-60
2021/03/19 07:20:10;;;;;;;11.35;8.73;;;;;;;;;;5010747;28;20400;-57
2021/03/19 07:22:42;;;;;;;11.35;8.52;;;;;;;;;;5010823;28;20160;-58
2021/03/19 07:25:14;;;;;;;9.93;8.93;;;;;;;;;;5010728;28;20199;-59
2021/03/19 07:27:58;;;;;;;15.90;8.60;;;;;;;;;;5010475;28;20421;-57
2021/03/19 07:30:34;;;;;;;13.17;9.30;;;;;;;;;;5010433;28;20403;-59
2021/03/19 07:33:07;;;;;;;9.43;8.40;;;;;;;;;;5010776;28;20405;-57
2021/03/19 07:35:41;;;;;;;12.83;9.70;;;;;;;;;;5010505;28;20428;-61
2021/03/19 07:38:13;;;;;;;8.70;7.80;;;;;;;;;;5010324;28;20520;-56
2021/03/19 07:40:45;;;;;;;11.20;8.37;;;;;;;;;;5010468;28;20403;-62
2021/03/19 07:43:14;;;;;;;10.67;7.77;;;;;;;;;;5008379;28;20462;-61
2021/03/19 07:45:56;;;;;;;10.13;7.93;;;;;;;;;;5014142;28;20404;-58
2021/03/19 07:48:22;;;;;;;10.20;8.20;;;;;;;;;;5013987;28;20790;-61
2021/03/19 07:51:11;;;;;;;11.60;7.80;;;;;;;;;;5012837;28;20454;-62
2021/03/19 07:53:55;;;;;;;10.50;8.13;;;;;;;;;;5014344;28;20407;-57
2021/03/19 07:56:40;;;;;;;12.57;8.10;;;;;;;;;;5014030;28;20400;-57
2021/03/19 07:59:21;;;;;;;14.33;7.70;;;;;;;;;;5013816;28;20408;-57
2021/03/19 08:01:52;;;;;;;8.43;7.60;;;;;;;;;;5014052;28;20389;-57
2021/03/19 08:04:39;;;;;;;10.80;7.40;;;;;;;;;;5012856;28;20506;-61
2021/03/19 08:07:20;;;;;;;12.23;8.83;;;;;;;;;;5013856;28;20517;-59
2021/03/19 08:09:49;;;;;;;10.50;7.23;;;;;;;;;;5014029;28;20805;-57
2021/03/19 08:12:37;;;;;;;10.43;7.53;;;;;;;;;;5008431;28;20469;-61
2021/03/19 08:15:05;;;;;;;9.43;6.90;;;;;;;;;;5013884;28;20403;-58
2021/03/19 08:17:31;;;;;;;7.37;6.27;;;;;;;;;;5013499;28;20420;-57
2021/03/19 08:20:16;;;;;;;8.53;6.57;;;;;;;;;;5013693;28;20410;-59
2021/03/19 08:22:45;;;;;;;9.00;7.00;;;;;;;;;;5013692;28;20414;-57
2021/03/19 08:25:24;;;;;;;7.10;6.43;;;;;;;;;;5013748;28;20403;-63
2021/03/19 08:27:57;;;;;;;8.73;6.60;;;;;;;;;;5013215;28;20914;-57
2021/03/19 08:30:42;;;;;;;8.00;6.50;;;;;;;;;;5013413;28;20409;-61
2021/03/19 08:33:23;;;;;;;7.00;6.40;;;;;;;;;;5013516;28;20411;-57
2021/03/19 08:35:58;;;;;;;7.23;5.87;;;;;;;;;;5013319;28;20399;-63
2021/03/19 08:38:33;;;;;;;7.10;5.57;;;;;;;;;;5012847;28;20921;-58
2021/03/19 08:41:02;;;;;;;7.37;6.60;;;;;;;;;;5010120;28;20409;-59
2021/03/19 08:43:28;;;;;;;6.60;6.00;;;;;;;;;;4973002;28;20409;-58
2021/03/19 08:46:12;;;;;;;7.27;5.00;;;;;;;;;;4974180;28;20991;-57
2021/03/19 08:48:57;;;;;;;6.50;5.90;;;;;;;;;;4973885;28;20512;-63
2021/03/19 08:51:30;;;;;;;6.57;5.13;;;;;;;;;;4974021;28;20458;-57
2021/03/19 08:54:07;;;;;;;8.80;6.00;;;;;;;;;;4974119;28;20400;-60
2021/03/19 08:56:33;;;;;;;5.83;5.30;;;;;;;;;;4973467;28;20404;-57
2021/03/19 08:58:59;;;;;;;7.10;5.90;;;;;;;;;;4973661;28;20443;-58
2021/03/19 09:01:44;;;;;;;6.80;6.20;;;;;;;;;;4973803;28;20419;-57
2021/03/19 09:04:10;;;;;;;6.20;5.60;;;;;;;;;;4973932;28;20500;-58
2021/03/19 09:06:36;;;;;;;7.47;5.97;;;;;;;;;;4973723;28;20440;-61
2021/03/19 09:09:13;;;;;;;8.43;6.80;;;;;;;;;;4973668;28;20409;-60
2021/03/19 09:11:39;;;;;;;6.67;6.07;;;;;;;;;;4976370;28;20459;-60
2021/03/19 09:14:05;;;;;;;7.10;5.13;;;;;;;;;;5012077;28;20443;-61
2021/03/19 09:16:42;;;;;;;4.63;4.17;;;;;;;;;;5011776;28;20382;-62
2021/03/19 09:19:27;;;;;;;4.30;3.90;;;;;;;;;;5011914;28;20930;-60
2021/03/19 09:21:53;;;;;;;5.50;4.23;;;;;;;;;;5012172;28;20389;-56
2021/03/19 09:24:23;;;;;;;6.93;5.17;;;;;;;;;;4991159;28;20423;-57
2021/03/19 09:26:50;;;;;;;5.63;5.13;;;;;;;;;;4992697;28;20437;-58
2021/03/19 09:29:16;;;;;;;6.43;3.30;;;;;;;;;;4992607;28;20383;-61
2021/03/19 09:31:46;;;;;;;9.47;4.80;;;;;;;;;;4992739;28;20526;-59
2021/03/19 09:34:14;;;;;;;9.23;3.97;;;;;;;;;;4992363;28;20408;-64
2021/03/19 09:37:04;;;;;;;4.80;4.40;;;;;;;;;;4990517;28;20403;-64
2021/03/19 09:39:49;;;;;;;10.47;7.17;;;;;;;;;;4991745;28;20747;-60
2021/03/19 09:42:15;;;;;;;4.17;3.43;;;;;;;;;;4992507;28;20882;-60
2021/03/19 09:44:41;;;;;;;5.80;5.30;;;;;;;;;;5011933;28;20382;-60
2021/03/19 09:47:08;;;;;;;5.90;3.57;;;;;;;;;;5011953;28;20402;-61
2021/03/19 09:49:33;;;;;;;4.77;4.00;;;;;;;;;;5011754;28;20381;-58
2021/03/19 09:52:11;;;;;;;4.50;3.40;;;;;;;;;;5011957;28;20458;-58
2021/03/19 09:54:37;;;;;;;3.00;2.80;;;;;;;;;;5011988;28;20373;-57
2021/03/19 09:57:11;;;;;;;4.50;3.90;;;;;;;;;;5012107;28;20928;-58
2021/03/19 09:59:37;;;;;;;3.63;3.30;;;;;;;;;;5011799;28;20374;-57
2021/03/19 10:02:21;;;;;;;2.50;2.30;;;;;;;;;;5002971;28;20390;-62
2021/03/19 10:04:47;;;;;;;3.63;3.37;;;;;;;;;;4990929;28;20407;-63
2021/03/19 10:07:15;;;;;;;2.70;2.50;;;;;;;;;;4991981;28;20403;-61
2021/03/19 10:09:43;;;;;;;4.83;4.43;;;;;;;;;;4992012;28;20389;-57
2021/03/19 10:12:16;;;;;;;3.60;3.40;;;;;;;;;;4999257;28;20433;-57
2021/03/19 10:14:44;;;;;;;3.37;3.07;;;;;;;;;;5011561;28;20407;-57
2021/03/19 10:17:19;;;;;;;3.03;2.83;;;;;;;;;;5011490;28;20832;-57
2021/03/19 10:19:48;;;;;;;3.10;2.90;;;;;;;;;;5010316;28;20413;-57
2021/03/19 10:22:32;;;;;;;2.93;2.63;;;;;;;;;;5011422;28;20382;-59
2021/03/19 10:25:13;;;;;;;2.60;2.50;;;;;;;;;;5011456;28;20790;-60
2021/03/19 10:27:46;;;;;;;2.77;2.57;;;;;;;;;;5010617;28;20405;-59
2021/03/19 10:30:17;;;;;;;3.47;3.17;;;;;;;;;;5010496;28;20774;-60
2021/03/19 10:32:44;;;;;;;4.07;3.57;;;;;;;;;;5011206;28;20764;-58
2021/03/19 10:35:17;;;;;;;2.97;2.70;;;;;;;;;;5011280;28;20394;-61
2021/03/19 10:37:58;;;;;;;6.07;5.47;;;;;;;;;;5010981;28;20449;-57
2021/03/19 10:40:31;;;;;;;4.10;3.67;;;;;;;;;;5020221;22;20508;-51
2021/03/19 10:43:24;;;;;;;3.67;3.27;;;;;;;;;;5011868;28;20785;-53
2021/03/19 10:45:56;;;;;;;2.40;2.20;;;;;;;;;;5009956;28;20382;-50
2021/03/19 10:48:47;;;;;;;4.50;3.00;;;;;;;;;;5011955;28;20377;-53
2021/03/19 10:51:32;;;;;;;2.87;2.10;;;;;;;;;;5012044;28;20516;-53
2021/03/19 10:54:03;;;;;;;1.83;1.73;;;;;;;;;;5011527;28;20374;-53
2021/03/19 10:56:30;;;;;;;3.37;3.07;;;;;;;;;;5011560;28;20370;-53
2021/03/19 10:59:14;;;;;;;2.03;1.90;;;;;;;;;;5009633;28;20378;-53
2021/03/19 11:01:43;;;;;;;3.23;2.80;;;;;;;;;;5011304;28;20407;-50
2021/03/19 11:04:30;;;;;;;2.03;1.93;;;;;;;;;;5011796;28;20482;-52
2021/03/19 11:06:56;;;;;;;3.83;3.53;;;;;;;;;;5011346;28;20395;-52
2021/03/19 11:09:28;;;;;;;3.93;3.53;;;;;;;;;;5011062;28;20506;-53
2021/03/19 11:11:56;;;;;;;2.23;1.70;;;;;;;;;;5007062;28;20458;-51
2021/03/19 11:14:25;;;;;;;4.60;2.10;;;;;;;;;;5011508;28;20402;-53
2021/03/19 11:16:52;;;;;;;1.97;1.87;;;;;;;;;;5011514;28;20416;-52
2021/03/19 11:19:24;;;;;;;1.90;1.80;;;;;;;;;;5014293;28;20427;-51
2021/03/19 11:21:56;;;;;;;4.03;2.30;;;;;;;;;;5015356;28;20406;-50
2021/03/19 11:24:24;;;;;;;2.23;2.07;;;;;;;;;;5015235;28;20410;-50
2021/03/19 11:26:58;;;;;;;1.60;1.47;;;;;;;;;;5001187;28;20417;-52
2021/03/19 11:29:26;;;;;;;6.20;4.07;;;;;;;;;;4986759;28;20428;-52
2021/03/19 11:31:58;;;;;;;4.67;2.57;;;;;;;;;;4995294;28;20463;-53
2021/03/19 11:34:29;;;;;;;1.90;1.80;;;;;;;;;;4995854;28;20392;-51
2021/03/19 11:37:07;;;;;;;1.97;1.83;;;;;;;;;;4995783;28;20408;-51
2021/03/19 11:39:36;;;;;;;3.03;1.80;;;;;;;;;;4995369;28;21185;-52
2021/03/19 11:42:04;;;;;;;2.13;2.00;;;;;;;;;;5007787;28;20491;-52
2021/03/19 11:44:30;;;;;;;1.83;1.70;;;;;;;;;;4990628;28;20402;-53
2021/03/19 11:46:57;;;;;;;3.73;1.57;;;;;;;;;;4994695;28;20422;-52
2021/03/19 11:49:23;;;;;;;2.33;2.03;;;;;;;;;;5001174;28;20440;-51
2021/03/19 11:51:49;;;;;;;1.83;1.73;;;;;;;;;;4997761;28;20458;-49
2021/03/19 11:54:15;;;;;;;3.40;2.60;;;;;;;;;;4994747;28;20371;-51
2021/03/19 11:56:41;;;;;;;1.57;1.43;;;;;;;;;;4996077;28;20996;-51
2021/03/19 11:59:10;;;;;;;3.00;1.47;;;;;;;;;;4997207;28;20427;-53
2021/03/19 12:01:36;;;;;;;4.13;1.90;;;;;;;;;;4996025;28;20410;-51
2021/03/19 12:04:03;;;;;;;1.77;1.67;;;;;;;;;;4995178;28;20382;-53
2021/03/19 12:06:29;;;;;;;1.50;1.40;;;;;;;;;;4994690;28;20379;-52
2021/03/19 12:08:55;;;;;;;2.33;2.07;;;;;;;;;;4995845;28;20411;-52
2021/03/19 12:11:30;;;;;;;1.97;1.87;;;;;;;;;;4998578;28;20900;-52
2021/03/19 12:13:57;;;;;;;1.63;1.53;;;;;;;;;;5017059;28;20403;-51
2021/03/19 12:16:23;;;;;;;1.53;1.40;;;;;;;;;;5017616;28;20457;-52
2021/03/19 12:18:50;;;;;;;1.40;1.30;;;;;;;;;;5016432;28;20402;-53
2021/03/19 12:21:16;;;;;;;1.27;1.17;;;;;;;;;;5016810;28;20431;-53
2021/03/19 12:23:41;;;;;;;3.00;1.87;;;;;;;;;;4994450;28;20423;-52
2021/03/19 12:26:07;;;;;;;1.67;1.47;;;;;;;;;;4994482;28;20422;-53
2021/03/19 12:28:33;;;;;;;2.20;1.57;;;;;;;;;;4994147;28;20400;-51
2021/03/19 12:30:59;;;;;;;1.97;1.70;;;;;;;;;;4993659;28;20464;-53
2021/03/19 12:33:29;;;;;;;1.80;1.70;;;;;;;;;;4992151;28;20404;-49
2021/03/19 12:35:55;;;;;;;2.03;1.60;;;;;;;;;;4989949;28;20398;-51
2021/03/19 12:38:21;;;;;;;3.50;3.10;;;;;;;;;;4994366;28;20379;-50
2021/03/19 12:40:47;;;;;;;1.60;1.50;;;;;;;;;;5003404;28;20513;-52
2021/03/19 12:43:15;;;;;;;1.80;1.70;;;;;;;;;;5016059;28;20820;-53
2021/03/19 12:45:41;;;;;;;1.97;1.83;;;;;;;;;;5010854;28;20407;-52
2021/03/19 12:48:07;;;;;;;1.80;1.70;;;;;;;;;;4991654;28;20423;-53
2021/03/19 12:50:34;;;;;;;1.47;1.37;;;;;;;;;;4990358;28;20848;-50
2021/03/19 12:53:01;;;;;;;1.40;1.30;;;;;;;;;;4991886;28;21071;-53
2021/03/19 12:55:27;;;;;;;2.60;1.80;;;;;;;;;;4993196;28;20474;-52
2021/03/19 12:57:53;;;;;;;1.30;1.20;;;;;;;;;;4993114;28;20427;-50
2021/03/19 13:00:21;;;;;;;1.47;1.37;;;;;;;;;;4993080;28;20463;-51
2021/03/19 13:02:47;;;;;;;1.73;1.30;;;;;;;;;;4993264;28;20385;-53
2021/03/19 13:05:14;;;;;;;2.83;1.30;;;;;;;;;;4993360;28;20382;-53
2021/03/19 13:07:40;;;;;;;1.50;1.40;;;;;;;;;;4993237;28;20375;-53
2021/03/19 13:10:07;;;;;;;1.60;1.50;;;;;;;;;;4993447;28;22531;-53
2021/03/19 13:12:33;;;;;;;1.90;1.53;;;;;;;;;;5011167;28;21491;-52
2021/03/19 13:14:59;;;;;;;1.60;1.50;;;;;;;;;;4993372;28;21010;-53
2021/03/19 13:17:27;;;;;;;1.63;1.53;;;;;;;;;;4992161;28;20404;-50
2021/03/19 13:19:53;;;;;;;4.27;3.23;;;;;;;;;;4992740;28;20498;-53
2021/03/19 13:22:19;;;;;;;1.80;1.70;;;;;;;;;;4993499;28;20861;-53
2021/03/19 13:24:45;;;;;;;1.93;1.40;;;;;;;;;;4993622;28;20499;-53
2021/03/19 13:27:11;;;;;;;3.40;2.17;;;;;;;;;;4992865;28;20424;-52
2021/03/19 13:29:38;;;;;;;2.80;1.67;;;;;;;;;;4987983;28;20449;-50
2021/03/19 13:32:04;;;;;;;1.73;1.63;;;;;;;;;;4992371;28;20522;-50
2021/03/19 13:34:30;;;;;;;23.17;16.00;;;;;;;;;;4992838;28;21089;-52
2021/03/19 13:36:56;;;;;;;2.30;2.10;;;;;;;;;;4992123;28;21033;-52
2021/03/19 13:39:22;;;;;;;1.83;1.73;;;;;;;;;;4992621;28;20436;-53
2021/03/19 13:41:48;;;;;;;3.20;2.80;;;;;;;;;;4996322;28;20435;-53
2021/03/19 13:44:14;;;;;;;3.30;2.30;;;;;;;;;;4992190;28;20395;-50
2021/03/19 13:46:40;;;;;;;2.93;2.10;;;;;;;;;;4990827;28;20478;-49
2021/03/19 13:49:06;;;;;;;6.93;4.87;;;;;;;;;;4991562;28;20394;-50
2021/03/19 13:51:32;;;;;;;4.50;4.10;;;;;;;;;;4991936;28;20654;-49
2021/03/19 13:53:59;;;;;;;1.83;1.70;;;;;;;;;;4991966;28;20408;-49
2021/03/19 13:56:26;;;;;;;1.70;1.60;;;;;;;;;;4991834;28;20431;-50
2021/03/19 13:58:55;;;;;;;2.87;1.60;;;;;;;;;;4991900;28;20432;-49
2021/03/19 14:01:22;;;;;;;1.77;1.67;;;;;;;;;;4991151;28;20453;-50
2021/03/19 14:03:48;;;;;;;2.00;1.30;;;;;;;;;;4991799;28;20407;-50
2021/03/19 14:06:21;;;;;;;1.80;1.70;;;;;;;;;;4991826;28;20404;-49
2021/03/19 14:08:48;;;;;;;2.33;1.47;;;;;;;;;;4991645;28;20875;-51
2021/03/19 14:11:14;;;;;;;2.83;1.97;;;;;;;;;;4990144;28;20482;-49
2021/03/19 14:13:41;;;;;;;1.90;1.57;;;;;;;;;;4991881;28;20400;-49
2021/03/19 14:16:08;;;;;;;1.40;1.30;;;;;;;;;;4987768;28;20519;-50
2021/03/19 14:18:35;;;;;;;1.60;1.50;;;;;;;;;;4989519;28;20391;-50
2021/03/19 14:21:01;;;;;;;2.57;2.37;;;;;;;;;;4990799;28;20405;-51
2021/03/19 14:23:28;;;;;;;2.30;1.43;;;;;;;;;;4991826;28;20450;-49
2021/03/19 14:25:56;;;;;;;3.10;1.70;;;;;;;;;;4991350;28;20854;-49
2021/03/19 14:28:30;;;;;;;2.30;1.97;;;;;;;;;;4991187;28;20428;-50
2021/03/19 14:30:56;;;;;;;2.93;2.10;;;;;;;;;;4991534;28;20499;-50
2021/03/19 14:33:22;;;;;;;3.63;2.47;;;;;;;;;;5003716;28;20441;-50
2021/03/19 14:35:48;;;;;;;1.77;1.67;;;;;;;;;;5011268;28;20403;-48
2021/03/19 14:38:15;;;;;;;2.30;2.20;;;;;;;;;;5010909;28;20410;-49
2021/03/19 14:40:42;;;;;;;1.47;1.43;;;;;;;;;;5010823;28;20542;-49
2021/03/19 14:43:09;;;;;;;2.70;2.50;;;;;;;;;;5011358;28;20451;-48
2021/03/19 14:45:35;;;;;;;1.63;1.50;;;;;;;;;;5010949;28;20881;-50